Time;durP1;ratioP1;P1;durP2;ratioP2;P2;SDS_P1;SDS_P2;PMS_P1;PMS_P2;Temp;Humidity;BMP_temperature;BMP_pressure;BME280_temperature;BME280_humidity;BME280_pressure;Samples;Min_cycle;Max_cycle;Signal;HPM_P1;HPM_P2
2023/08/28 00:05:23;;;;;;;0.68;0.50;;;20.90;40.10;;;;;;20922930;28;20041;-57
2023/08/28 00:15:24;;;;;;;1.35;0.70;;;20.90;40.40;;;;;;20924042;28;20045;-57
2023/08/28 00:25:25;;;;;;;1.45;0.70;;;20.80;40.90;;;;;;20923684;28;20550;-57
2023/08/28 00:35:25;;;;;;;2.67;0.90;;;20.70;41.10;;;;;;20921690;28;20129;-56
2023/08/28 00:45:26;;;;;;;0.85;0.50;;;20.50;41.50;;;;;;20922409;28;20045;-57
2023/08/28 00:55:30;;;;;;;1.45;0.60;;;20.50;41.50;;;;;;20921409;28;20041;-58
2023/08/28 01:05:36;;;;;;;1.67;0.75;;;20.40;41.80;;;;;;20918861;28;20037;-56
2023/08/28 01:15:37;;;;;;;2.13;0.75;;;20.30;42.10;;;;;;20919298;28;20211;-56
2023/08/28 01:25:39;;;;;;;1.98;0.70;;;20.40;41.80;;;;;;20917571;28;20049;-57
2023/08/28 01:35:40;;;;;;;1.35;0.63;;;20.40;41.70;;;;;;20916990;28;20084;-57
2023/08/28 01:45:41;;;;;;;4.32;0.75;;;20.40;41.80;;;;;;20917818;28;20052;-56
2023/08/28 01:55:44;;;;;;;1.83;0.77;;;20.30;41.90;;;;;;20915412;28;20040;-56
2023/08/28 02:05:45;;;;;;;1.17;0.63;;;20.10;42.10;;;;;;20914748;28;20048;-57
2023/08/28 02:15:46;;;;;;;1.92;0.60;;;20.00;42.50;;;;;;20913853;28;20518;-56
2023/08/28 02:25:48;;;;;;;0.90;0.70;;;19.80;42.80;;;;;;20914211;28;20037;-55
2023/08/28 02:35:49;;;;;;;1.70;0.90;;;19.90;42.60;;;;;;20912892;28;20072;-57
2023/08/28 02:45:50;;;;;;;2.17;0.80;;;20.00;42.40;;;;;;20913850;28;20044;-56
2023/08/28 02:56:20;;;;;;;1.30;0.60;;;19.90;42.80;;;;;;20913240;28;20049;-57
2023/08/28 03:06:22;;;;;;;2.42;0.80;;;19.90;42.90;;;;;;20912998;28;20466;-57
2023/08/28 03:16:22;;;;;;;1.20;0.60;;;19.80;43.50;;;;;;20911224;28;20041;-57
2023/08/28 03:26:25;;;;;;;1.67;0.60;;;19.70;43.60;;;;;;20912009;28;20080;-56
2023/08/28 03:36:26;;;;;;;1.10;0.50;;;19.70;43.80;;;;;;20919532;28;20434;-56
2023/08/28 03:46:26;;;;;;;2.55;0.90;;;19.60;43.90;;;;;;20926127;28;20051;-57
2023/08/28 03:56:29;;;;;;;2.20;0.90;;;19.70;44.00;;;;;;20924428;28;20045;-56
2023/08/28 04:06:30;;;;;;;2.43;0.93;;;19.60;44.00;;;;;;20923985;28;20098;-56
2023/08/28 04:16:30;;;;;;;3.00;0.90;;;19.70;43.90;;;;;;20924266;28;20506;-57
2023/08/28 04:26:31;;;;;;;2.50;1.33;;;19.60;44.00;;;;;;20924539;28;20052;-58
2023/08/28 04:36:32;;;;;;;1.52;0.93;;;19.60;44.10;;;;;;20924429;28;20049;-56
2023/08/28 04:46:33;;;;;;;3.20;0.80;;;19.60;44.10;;;;;;20921786;28;20123;-56
2023/08/28 04:56:33;;;;;;;2.50;1.00;;;19.50;44.30;;;;;;20921320;28;20043;-56
2023/08/28 05:06:34;;;;;;;4.50;1.30;;;19.60;44.10;;;;;;20920578;28;20206;-56
2023/08/28 05:16:35;;;;;;;1.63;0.82;;;19.60;43.90;;;;;;20918314;28;20051;-56
2023/08/28 05:26:36;;;;;;;2.85;1.00;;;19.60;43.90;;;;;;20918878;28;20084;-56
2023/08/28 05:36:36;;;;;;;2.60;1.40;;;19.60;44.00;;;;;;20916500;28;20045;-57
2023/08/28 05:46:37;;;;;;;3.00;1.38;;;19.50;44.30;;;;;;20915747;28;20053;-57
2023/08/28 05:56:38;;;;;;;3.75;1.10;;;19.70;44.20;;;;;;20915230;28;20076;-57
2023/08/28 06:06:39;;;;;;;7.38;1.98;;;19.60;44.30;;;;;;20914427;28;20049;-57
2023/08/28 06:16:39;;;;;;;5.53;1.50;;;19.60;44.20;;;;;;20913632;28;20080;-55
2023/08/28 06:26:42;;;;;;;5.30;1.60;;;19.60;43.80;;;;;;20914061;28;20497;-57
2023/08/28 06:36:42;;;;;;;4.85;1.67;;;19.70;44.30;;;;;;20912132;28;20058;-56
2023/08/28 06:46:43;;;;;;;7.07;1.30;;;19.80;44.00;;;;;;20913316;28;20441;-56
2023/08/28 06:56:44;;;;;;;4.35;1.20;;;19.70;44.00;;;;;;20912722;28;20440;-56
2023/08/28 07:06:45;;;;;;;4.05;1.35;;;20.10;42.90;;;;;;20913821;28;20049;-57
2023/08/28 07:16:45;;;;;;;5.00;1.23;;;20.20;42.50;;;;;;20927734;28;20048;-57
2023/08/28 07:26:46;;;;;;;6.60;1.95;;;20.60;41.50;;;;;;20926275;28;20041;-57
2023/08/28 07:36:47;;;;;;;4.43;1.35;;;21.00;40.60;;;;;;20925796;28;20571;-56
2023/08/28 07:46:47;;;;;;;4.90;1.38;;;21.10;40.10;;;;;;20925232;28;20057;-57
2023/08/28 07:56:48;;;;;;;6.85;1.67;;;21.40;39.40;;;;;;20925293;28;20045;-56
2023/08/28 08:06:49;;;;;;;7.40;1.45;;;21.70;39.20;;;;;;20924952;28;20134;-56
2023/08/28 08:16:50;;;;;;;3.70;1.25;;;21.80;38.40;;;;;;20923860;28;20124;-57
2023/08/28 08:26:50;;;;;;;3.10;1.10;;;21.90;38.10;;;;;;20922231;28;20445;-56
2023/08/28 08:36:51;;;;;;;9.52;2.83;;;22.10;37.50;;;;;;20923110;28;20048;-57
2023/08/28 08:46:53;;;;;;;4.25;1.05;;;22.30;37.10;;;;;;20920511;28;20040;-57
2023/08/28 08:57:00;;;;;;;3.53;1.23;;;22.40;37.20;;;;;;20919922;28;20041;-59
2023/08/28 09:07:03;;;;;;;4.65;1.20;;;22.70;36.40;;;;;;20920133;28;20072;-57
2023/08/28 09:17:03;;;;;;;2.13;0.98;;;23.10;35.60;;;;;;20919312;28;20041;-58
2023/08/28 09:27:04;;;;;;;2.85;1.13;;;23.20;35.30;;;;;;20916005;28;20084;-58
2023/08/28 09:37:12;;;;;;;3.22;1.40;;;23.20;35.00;;;;;;20919207;28;20068;-57
2023/08/28 09:47:20;;;;;;;4.18;1.25;;;23.20;35.30;;;;;;20916835;28;20045;-57
2023/08/28 09:57:21;;;;;;;2.58;0.85;;;23.40;35.00;;;;;;20914827;28;20041;-57
2023/08/28 10:07:24;;;;;;;3.08;1.05;;;23.40;35.00;;;;;;20914235;28;20041;-57
2023/08/28 10:17:27;;;;;;;2.83;1.33;;;23.40;34.90;;;;;;20912805;28;20044;-58
2023/08/28 10:27:30;;;;;;;5.18;1.17;;;23.60;34.50;;;;;;20913867;28;20124;-58
2023/08/28 10:37:32;;;;;;;3.35;1.10;;;23.60;34.90;;;;;;20913848;28;20040;-57
2023/08/28 10:47:33;;;;;;;4.13;1.10;;;23.70;34.80;;;;;;20912419;28;20123;-58
2023/08/28 10:57:39;;;;;;;2.10;1.10;;;24.00;34.30;;;;;;20912288;28;20087;-57
2023/08/28 11:07:44;;;;;;;2.35;0.90;;;24.10;34.10;;;;;;20911957;28;20124;-57
2023/08/28 11:17:45;;;;;;;4.05;1.50;;;24.30;33.60;;;;;;20911568;28;20065;-56
2023/08/28 11:27:49;;;;;;;2.40;0.70;;;24.40;33.90;;;;;;20909384;28;20128;-57
2023/08/28 11:37:54;;;;;;;4.15;1.50;;;24.60;33.20;;;;;;20910259;28;20402;-57
2023/08/28 11:48:00;;;;;;;1.92;0.80;;;25.00;33.00;;;;;;20909732;28;20048;-57
2023/08/28 11:58:05;;;;;;;4.68;1.20;;;25.20;32.70;;;;;;20918665;28;20079;-57
2023/08/28 12:08:07;;;;;;;3.15;1.15;;;25.60;31.50;;;;;;20924818;28;20055;-58
2023/08/28 12:18:08;;;;;;;2.40;1.00;;;25.70;31.50;;;;;;20923738;28;20040;-58
2023/08/28 12:28:10;;;;;;;4.23;1.17;;;26.10;30.60;;;;;;20923208;28;20084;-57
2023/08/28 12:38:11;;;;;;;5.53;1.38;;;26.20;30.70;;;;;;20922296;28;20080;-57
2023/08/28 12:48:12;;;;;;;1.47;0.83;;;26.10;30.00;;;;;;20921482;28;20166;-56
2023/08/28 12:58:12;;;;;;;1.50;0.80;;;26.10;30.70;;;;;;20920891;28;20083;-57
2023/08/28 13:08:13;;;;;;;1.73;1.20;;;26.10;30.90;;;;;;20919436;28;20084;-58
2023/08/28 13:18:14;;;;;;;1.33;0.80;;;26.50;30.20;;;;;;20919293;28;20080;-57
2023/08/28 13:28:16;;;;;;;1.93;0.87;;;26.60;29.80;;;;;;20916795;28;20061;-57
2023/08/28 13:38:18;;;;;;;1.65;0.90;;;26.50;29.70;;;;;;20917505;28;20590;-57
2023/08/28 13:48:19;;;;;;;1.90;0.90;;;27.00;29.10;;;;;;20916838;28;20041;-57
2023/08/28 13:58:21;;;;;;;2.67;1.23;;;27.10;29.00;;;;;;20915915;28;20040;-57
2023/08/28 14:08:23;;;;;;;5.78;1.83;;;27.10;29.00;;;;;;20915266;28;20088;-56
2023/08/28 14:18:24;;;;;;;6.30;4.03;;;27.40;28.50;;;;;;20914053;28;20406;-57
2023/08/28 14:28:25;;;;;;;3.40;1.13;;;27.40;29.00;;;;;;20912948;28;20053;-61
2023/08/28 14:38:26;;;;;;;4.53;1.45;;;27.70;29.00;;;;;;20910085;28;20052;-59
2023/08/28 14:48:26;;;;;;;2.27;1.30;;;27.80;29.10;;;;;;20912813;28;20106;-58
2023/08/28 14:58:27;;;;;;;3.20;2.30;;;28.10;29.10;;;;;;20913152;28;20048;-61
2023/08/28 15:08:28;;;;;;;2.50;0.80;;;27.90;28.60;;;;;;20911195;28;20060;-62
2023/08/28 15:18:29;;;;;;;6.00;1.27;;;28.10;28.10;;;;;;20912089;28;20040;-58
2023/08/28 15:28:29;;;;;;;3.23;2.13;;;28.10;28.40;;;;;;20913398;28;20053;-61
2023/08/28 15:38:30;;;;;;;3.57;1.10;;;28.10;27.80;;;;;;20927364;28;20069;-57
2023/08/28 15:48:31;;;;;;;2.60;1.30;;;28.10;27.80;;;;;;20927170;28;20040;-59
2023/08/28 15:58:31;;;;;;;3.70;1.33;;;28.10;27.80;;;;;;20926256;28;20106;-57
2023/08/28 16:08:32;;;;;;;1.80;0.87;;;28.40;27.50;;;;;;20925503;28;20125;-59
2023/08/28 16:18:33;;;;;;;2.63;0.80;;;28.20;27.10;;;;;;20924227;28;20080;-60
2023/08/28 16:28:34;;;;;;;4.00;1.20;;;28.10;28.40;;;;;;20923069;28;20132;-58
2023/08/28 16:38:35;;;;;;;2.60;0.70;;;28.10;28.40;;;;;;20920700;28;20091;-62
2023/08/28 16:48:36;;;;;;;1.60;0.80;;;28.00;27.80;;;;;;20921168;28;20404;-60
2023/08/28 16:58:37;;;;;;;2.73;1.20;;;28.10;28.20;;;;;;20920529;28;20074;-57
2023/08/28 17:08:37;;;;;;;2.47;0.90;;;28.00;28.40;;;;;;20916009;28;20073;-60
2023/08/28 17:18:42;;;;;;;3.83;1.03;;;28.00;28.30;;;;;;20969305;28;20571;-58
2023/08/28 17:28:43;;;;;;;5.22;1.15;;;27.90;27.90;;;;;;20989895;28;20135;-59
2023/08/28 17:38:44;;;;;;;7.03;1.00;;;27.80;27.40;;;;;;20985213;28;20546;-58
2023/08/28 17:48:44;;;;;;;7.93;4.23;;;27.80;27.60;;;;;;20994797;28;20047;-58
2023/08/28 17:58:45;;;;;;;3.27;0.70;;;27.60;27.50;;;;;;20997670;28;20197;-60
2023/08/28 18:08:46;;;;;;;1.83;0.90;;;27.60;27.50;;;;;;20996740;28;20059;-56
2023/08/28 18:18:47;;;;;;;3.40;1.17;;;27.60;26.40;;;;;;20997595;28;20542;-59
2023/08/28 18:28:48;;;;;;;3.75;1.08;;;27.30;26.80;;;;;;20996845;28;20056;-58
2023/08/28 18:38:49;;;;;;;2.93;1.20;;;27.20;27.20;;;;;;20995309;28;20060;-59
2023/08/28 18:48:51;;;;;;;3.22;0.95;;;27.10;27.80;;;;;;20995150;28;20048;-58
2023/08/28 18:58:52;;;;;;;2.80;1.00;;;26.90;28.40;;;;;;20995121;28;20049;-58
2023/08/28 19:08:54;;;;;;;12.93;6.88;;;26.70;28.70;;;;;;21006743;28;20040;-59
2023/08/28 19:18:54;;;;;;;4.32;2.58;;;26.50;29.30;;;;;;21011901;28;20082;-58
2023/08/28 19:28:55;;;;;;;6.97;3.17;;;26.30;29.20;;;;;;21010324;28;20053;-58
2023/08/28 19:38:56;;;;;;;5.30;2.60;;;26.20;29.80;;;;;;21007816;28;20101;-58
2023/08/28 19:48:56;;;;;;;6.40;4.47;;;26.10;29.80;;;;;;21008995;28;20550;-58
2023/08/28 19:58:57;;;;;;;5.50;2.70;;;26.00;30.20;;;;;;21008308;28;20056;-58
2023/08/28 20:08:58;;;;;;;7.90;3.50;;;25.90;30.20;;;;;;21007693;28;20076;-59
2023/08/28 20:18:59;;;;;;;7.57;4.40;;;25.80;30.30;;;;;;21004065;28;20110;-58
2023/08/28 20:29:00;;;;;;;4.53;2.70;;;25.70;30.20;;;;;;21004237;28;20044;-59
2023/08/28 20:39:01;;;;;;;5.60;4.20;;;25.60;29.90;;;;;;21005166;28;20493;-58
2023/08/28 20:49:01;;;;;;;7.50;5.77;;;25.60;30.10;;;;;;21004641;28;20041;-59
2023/08/28 20:59:02;;;;;;;5.53;2.60;;;25.50;30.40;;;;;;21002915;28;20048;-58
2023/08/28 21:09:04;;;;;;;5.67;3.33;;;25.50;30.30;;;;;;21003047;28;20474;-58
2023/08/28 21:19:04;;;;;;;5.63;3.05;;;25.40;30.40;;;;;;21002043;28;20053;-58
2023/08/28 21:29:05;;;;;;;5.20;3.37;;;25.30;31.00;;;;;;21000853;28;20056;-56
2023/08/28 21:39:06;;;;;;;5.40;2.70;;;25.30;31.20;;;;;;21001031;28;20058;-59
2023/08/28 21:49:07;;;;;;;3.90;2.70;;;25.20;31.20;;;;;;20999872;28;20370;-59
2023/08/28 21:59:08;;;;;;;5.30;2.72;;;25.10;31.50;;;;;;20999340;28;20040;-57
2023/08/28 22:09:09;;;;;;;4.73;1.93;;;25.10;31.60;;;;;;20997062;28;20086;-58
2023/08/28 22:19:10;;;;;;;4.90;2.00;;;25.00;31.50;;;;;;20997957;28;20072;-58
2023/08/28 22:29:11;;;;;;;4.85;2.45;;;24.80;31.90;;;;;;20996554;28;20060;-56
2023/08/28 22:39:11;;;;;;;2.78;1.80;;;24.70;32.00;;;;;;20994933;28;20055;-59
2023/08/28 22:49:12;;;;;;;3.83;2.10;;;24.70;32.10;;;;;;20996347;28;20071;-58
2023/08/28 22:59:13;;;;;;;4.18;2.60;;;24.60;32.50;;;;;;20995683;28;20044;-58
2023/08/28 23:09:14;;;;;;;4.82;2.50;;;24.60;32.80;;;;;;20995256;28;20056;-58
2023/08/28 23:19:14;;;;;;;3.28;1.80;;;24.50;33.20;;;;;;20994924;28;20044;-57
2023/08/28 23:29:15;;;;;;;3.92;1.63;;;24.40;33.40;;;;;;20994679;28;20052;-57
2023/08/28 23:39:16;;;;;;;4.38;2.00;;;24.40;33.30;;;;;;20994323;28;20094;-58
2023/08/28 23:49:17;;;;;;;4.65;2.50;;;24.20;33.70;;;;;;20996196;28;20393;-59
2023/08/28 23:59:17;;;;;;;3.80;1.50;;;24.10;34.20;;;;;;21008582;28;20041;-57
